createdAt,value
2022-07-28T00:00:41.566Z,99.90
2022-07-28T00:05:46.440Z,99.90
2022-07-28T00:10:53.240Z,99.90
2022-07-28T00:15:56.575Z,99.90
2022-07-28T00:21:00.423Z,99.90
2022-07-28T00:26:03.860Z,99.90
2022-07-28T00:31:10.988Z,99.90
2022-07-28T00:36:15.254Z,99.90
2022-07-28T00:41:20.426Z,99.90
2022-07-28T00:46:24.949Z,99.90
2022-07-28T00:51:29.180Z,99.90
2022-07-28T00:56:34.501Z,99.90
2022-07-28T01:01:37.848Z,99.90
2022-07-28T01:06:46.181Z,99.90
2022-07-28T01:12:01.180Z,99.90
2022-07-28T01:17:12.268Z,99.90
2022-07-28T01:22:22.613Z,99.90
2022-07-28T01:27:51.647Z,99.90
2022-07-28T01:33:05.480Z,99.90
2022-07-28T01:38:12.200Z,99.90
2022-07-28T01:43:21.599Z,99.90
2022-07-28T01:48:25.961Z,99.90
2022-07-28T01:53:37.583Z,99.90
2022-07-28T01:58:43.835Z,99.90
2022-07-28T02:03:48.400Z,99.90
2022-07-28T02:08:54.020Z,99.90
2022-07-28T02:13:58.780Z,99.90
2022-07-28T02:19:03.220Z,99.90
2022-07-28T02:24:08.339Z,99.90
2022-07-28T02:29:33.634Z,99.90
2022-07-28T02:34:39.521Z,99.90
2022-07-28T02:39:59.862Z,99.90
2022-07-28T02:45:09.022Z,99.90
2022-07-28T02:50:15.125Z,99.90
2022-07-28T02:55:19.106Z,99.90
2022-07-28T03:00:23.312Z,99.90
2022-07-28T03:05:26.829Z,99.90
2022-07-28T03:10:34.226Z,99.90
2022-07-28T03:15:40.906Z,99.90
2022-07-28T03:20:44.099Z,99.90
2022-07-28T03:25:52.800Z,99.90
2022-07-28T03:31:02.810Z,99.90
2022-07-28T03:36:14.700Z,99.90
2022-07-28T03:41:21.679Z,99.90
2022-07-28T03:46:26.402Z,99.90
2022-07-28T03:51:30.239Z,99.90
2022-07-28T03:56:33.420Z,99.90
2022-07-28T04:01:36.786Z,99.90
2022-07-28T04:06:40.402Z,99.90
2022-07-28T04:11:44.222Z,99.90
2022-07-28T04:16:47.591Z,99.90
2022-07-28T04:21:50.959Z,99.90
2022-07-28T04:26:54.339Z,99.90
2022-07-28T04:31:57.664Z,99.90
2022-07-28T04:37:00.937Z,99.90
2022-07-28T04:42:04.848Z,99.90
2022-07-28T04:47:08.149Z,99.90
2022-07-28T04:52:12.080Z,99.90
2022-07-28T04:57:15.509Z,99.90
2022-07-28T05:02:19.204Z,99.90
2022-07-28T05:07:22.461Z,99.90
2022-07-28T05:12:25.701Z,99.90
2022-07-28T05:17:29.153Z,99.90
2022-07-28T05:22:47.480Z,99.90
2022-07-28T05:27:51.381Z,99.90
2022-07-28T05:32:54.919Z,99.90
2022-07-28T05:37:58.262Z,99.90
2022-07-28T05:43:01.900Z,99.90
2022-07-28T05:48:05.480Z,99.90
2022-07-28T05:53:08.720Z,99.90
2022-07-28T05:58:12.966Z,99.90
2022-07-28T06:03:16.281Z,99.90
2022-07-28T06:08:19.469Z,99.90
2022-07-28T06:13:25.861Z,99.90
2022-07-28T06:18:29.360Z,99.90
2022-07-28T06:23:32.336Z,99.90
2022-07-28T06:28:36.347Z,99.90
2022-07-28T06:33:39.551Z,99.90
2022-07-28T06:38:42.961Z,99.90
2022-07-28T06:43:46.781Z,99.90
2022-07-28T06:48:50.053Z,99.90
2022-07-28T06:53:53.761Z,99.90
2022-07-28T06:58:57.041Z,99.90
2022-07-28T07:04:00.202Z,99.90
2022-07-28T07:09:03.341Z,99.90
2022-07-28T07:14:06.461Z,99.90
2022-07-28T07:19:15.449Z,99.90
2022-07-28T07:24:19.757Z,99.90
2022-07-28T07:29:25.844Z,99.90
2022-07-28T07:34:33.717Z,99.90
2022-07-28T07:39:37.600Z,99.90
2022-07-28T07:44:40.896Z,99.90
2022-07-28T07:49:53.208Z,99.90
2022-07-28T07:54:56.461Z,99.90
2022-07-28T07:59:59.798Z,99.90
2022-07-28T08:05:02.979Z,99.90
2022-07-28T08:10:06.840Z,97.80
2022-07-28T08:15:10.441Z,96.90
2022-07-28T08:20:14.070Z,93.90
2022-07-28T08:25:17.782Z,94.10
2022-07-28T08:30:22.384Z,94.50
2022-07-28T08:35:33.450Z,93.40
2022-07-28T08:40:42.548Z,91.60
2022-07-28T08:45:52.539Z,92.60
2022-07-28T08:51:03.037Z,91.60
2022-07-28T08:56:10.459Z,92.10
2022-07-28T09:01:14.217Z,90.50
2022-07-28T09:06:22.813Z,90.00
2022-07-28T09:11:29.100Z,90.40
2022-07-28T09:16:33.006Z,90.30
2022-07-28T09:21:37.059Z,90.80
2022-07-28T09:27:00.236Z,90.40
2022-07-28T09:32:04.710Z,89.50
2022-07-28T09:37:26.818Z,89.70
2022-07-28T09:42:47.101Z,89.80
2022-07-28T09:47:51.619Z,89.10
2022-07-28T09:52:55.182Z,86.40
2022-07-28T09:57:58.560Z,86.90
2022-07-28T10:03:02.267Z,87.00
2022-07-28T10:08:07.101Z,85.40
2022-07-28T10:13:10.641Z,86.70
2022-07-28T10:18:14.044Z,84.60
2022-07-28T10:23:19.491Z,81.90
2022-07-28T10:28:23.820Z,81.00
2022-07-28T10:33:32.141Z,79.50
2022-07-28T10:38:37.925Z,81.20
2022-07-28T10:43:42.943Z,78.30
2022-07-28T10:48:49.883Z,76.60
2022-07-28T10:54:16.941Z,76.50
2022-07-28T10:59:45.220Z,78.70
2022-07-28T11:04:48.942Z,77.60
2022-07-28T11:09:52.740Z,73.40
2022-07-28T11:14:55.993Z,74.30
2022-07-28T11:20:24.605Z,74.00
2022-07-28T11:25:23.074Z,72.30
2022-07-28T11:30:32.789Z,71.90
2022-07-28T11:35:42.212Z,70.60
2022-07-28T11:40:47.167Z,69.80
2022-07-28T11:46:11.958Z,70.70
2022-07-28T11:51:16.495Z,68.60
2022-07-28T11:56:40.431Z,64.80
2022-07-28T12:01:53.806Z,65.90
2022-07-28T12:06:57.093Z,63.70
2022-07-28T12:12:00.740Z,65.90
2022-07-28T12:17:04.187Z,63.00
2022-07-28T12:22:15.672Z,64.60
2022-07-28T12:27:29.151Z,60.50
2022-07-28T12:32:36.064Z,62.70
2022-07-28T12:37:39.634Z,62.00
2022-07-28T12:42:43.412Z,60.20
2022-07-28T12:47:46.636Z,60.80
2022-07-28T12:53:04.655Z,60.20
2022-07-28T12:58:21.639Z,59.90
2022-07-28T13:03:28.855Z,62.10
2022-07-28T13:08:46.721Z,55.80
2022-07-28T13:13:52.720Z,57.50
2022-07-28T13:19:01.567Z,55.60
2022-07-28T13:24:05.847Z,56.60
2022-07-28T13:29:12.560Z,55.90
2022-07-28T13:34:16.933Z,57.00
2022-07-28T13:39:20.592Z,54.90
2022-07-28T13:44:23.951Z,56.20
2022-07-28T13:49:28.587Z,54.70
2022-07-28T13:54:32.322Z,55.50
2022-07-28T13:59:37.730Z,56.20
2022-07-28T14:04:41.142Z,57.10
2022-07-28T14:09:51.050Z,57.20
2022-07-28T14:14:54.295Z,57.10
2022-07-28T14:19:58.717Z,57.90
2022-07-28T14:25:02.192Z,56.30
2022-07-28T14:30:06.735Z,54.90
2022-07-28T14:35:10.415Z,57.00
2022-07-28T14:40:16.147Z,56.10
2022-07-28T14:45:23.269Z,56.00
2022-07-28T14:50:27.000Z,53.70
2022-07-28T14:55:31.045Z,55.40
2022-07-28T15:00:34.179Z,54.50
2022-07-28T15:05:37.473Z,52.00
2022-07-28T15:10:40.764Z,51.10
2022-07-28T15:15:44.928Z,51.40
2022-07-28T15:20:51.885Z,51.20
2022-07-28T15:25:56.645Z,51.90
2022-07-28T15:31:17.718Z,51.80
2022-07-28T15:36:30.599Z,49.70
2022-07-28T15:41:34.219Z,49.40
2022-07-28T15:46:39.557Z,53.00
2022-07-28T15:51:46.254Z,54.00
2022-07-28T15:56:50.867Z,53.70
2022-07-28T16:01:54.979Z,54.40
2022-07-28T16:07:16.458Z,55.10
2022-07-28T16:12:21.401Z,56.00
2022-07-28T16:17:25.985Z,56.80
2022-07-28T16:22:29.368Z,57.00
2022-07-28T16:27:32.884Z,56.90
2022-07-28T16:32:35.869Z,57.30
2022-07-28T16:37:40.886Z,57.20
2022-07-28T16:42:45.012Z,56.60
2022-07-28T16:47:51.484Z,56.30
2022-07-28T16:52:56.288Z,56.30
2022-07-28T16:57:59.492Z,56.60
2022-07-28T17:03:02.824Z,56.80
2022-07-28T17:08:06.783Z,56.80
2022-07-28T17:13:13.094Z,57.20
2022-07-28T17:18:18.547Z,57.80
2022-07-28T17:23:21.804Z,57.80
2022-07-28T17:28:25.645Z,57.80
2022-07-28T17:33:29.526Z,57.10
2022-07-28T17:38:34.435Z,57.10
2022-07-28T17:43:45.383Z,57.50
2022-07-28T17:48:49.213Z,57.50
2022-07-28T17:53:52.297Z,58.30
2022-07-28T17:58:58.982Z,59.00
2022-07-28T18:04:02.216Z,60.30
2022-07-28T18:09:08.588Z,61.60
2022-07-28T18:14:11.994Z,62.30
2022-07-28T18:19:19.790Z,63.30
2022-07-28T18:24:23.065Z,64.70
2022-07-28T18:29:38.592Z,65.70
2022-07-28T18:34:42.569Z,67.30
2022-07-28T18:39:47.743Z,69.30
2022-07-28T18:44:52.246Z,70.40
2022-07-28T18:49:59.249Z,72.40
2022-07-28T18:55:02.984Z,73.30
2022-07-28T19:00:11.070Z,74.00
2022-07-28T19:05:15.005Z,75.70
2022-07-28T19:10:18.283Z,83.10
2022-07-28T19:15:21.555Z,87.90
2022-07-28T19:20:24.627Z,93.20
2022-07-28T19:25:30.605Z,99.80
2022-07-28T19:30:34.878Z,99.90
2022-07-28T19:35:38.738Z,99.90
2022-07-28T19:40:43.610Z,99.90
2022-07-28T19:45:47.375Z,99.90
2022-07-28T19:50:53.064Z,99.90
2022-07-28T19:55:57.777Z,99.90
2022-07-28T20:01:05.140Z,99.90
2022-07-28T20:06:10.500Z,99.90
2022-07-28T20:11:14.185Z,99.90
2022-07-28T20:16:18.627Z,99.90
2022-07-28T20:21:24.345Z,99.90
2022-07-28T20:26:28.713Z,99.90
2022-07-28T20:31:32.781Z,99.90
2022-07-28T20:36:36.356Z,99.90
2022-07-28T20:41:39.703Z,99.90
2022-07-28T20:46:48.711Z,99.90
2022-07-28T20:51:52.425Z,99.90
2022-07-28T20:56:56.336Z,99.90
2022-07-28T21:01:59.747Z,99.90
2022-07-28T21:07:04.144Z,99.90
2022-07-28T21:12:08.343Z,99.90
2022-07-28T21:17:11.954Z,99.90
2022-07-28T21:22:16.183Z,99.90
2022-07-28T21:27:20.585Z,99.90
2022-07-28T21:32:23.935Z,99.90
2022-07-28T21:37:27.246Z,99.90
2022-07-28T21:42:30.510Z,99.90
2022-07-28T21:47:34.166Z,99.90
2022-07-28T21:52:38.508Z,99.90
2022-07-28T21:57:42.189Z,99.90
2022-07-28T22:02:45.346Z,99.90
2022-07-28T22:08:01.262Z,99.90
2022-07-28T22:13:19.619Z,99.90
2022-07-28T22:18:22.621Z,99.90
2022-07-28T22:23:29.643Z,99.90
2022-07-28T22:28:33.225Z,99.90
2022-07-28T22:33:37.003Z,99.90
2022-07-28T22:38:40.486Z,99.90
2022-07-28T22:43:44.081Z,99.90
2022-07-28T22:48:47.441Z,99.90
2022-07-28T22:53:50.885Z,99.90
2022-07-28T22:58:54.083Z,99.90
2022-07-28T23:03:59.002Z,99.90
2022-07-28T23:09:02.987Z,99.90
2022-07-28T23:14:06.462Z,99.90
2022-07-28T23:19:09.673Z,99.90
2022-07-28T23:24:13.299Z,99.90
2022-07-28T23:29:16.514Z,99.90
2022-07-28T23:34:19.743Z,99.90
2022-07-28T23:39:23.065Z,99.90
2022-07-28T23:44:26.466Z,99.90
2022-07-28T23:49:29.803Z,99.90
2022-07-28T23:54:32.981Z,99.90
2022-07-28T23:59:36.284Z,99.90
